sensor_id;sensor_type;location;lat;lon;timestamp;pressure;altitude;pressure_sealevel;temperature;humidity
42591;BME280;28218;53.342;-6.216;2023-05-11T00:02:04;101247.38;;;12.98;100.00
42591;BME280;28218;53.342;-6.216;2023-05-11T00:04:33;101259.16;;;12.96;100.00
42591;BME280;28218;53.342;-6.216;2023-05-11T00:07:03;101260.66;;;12.90;100.00
42591;BME280;28218;53.342;-6.216;2023-05-11T00:09:31;101263.94;;;12.92;100.00
42591;BME280;28218;53.342;-6.216;2023-05-11T00:12:01;101255.38;;;12.90;100.00
42591;BME280;28218;53.342;-6.216;2023-05-11T00:14:29;101266.28;;;12.87;100.00
42591;BME280;28218;53.342;-6.216;2023-05-11T00:16:57;101262.19;;;12.85;100.00
42591;BME280;28218;53.342;-6.216;2023-05-11T00:19:26;101260.84;;;12.81;100.00
42591;BME280;28218;53.342;-6.216;2023-05-11T00:21:57;101260.84;;;12.81;100.00
42591;BME280;28218;53.342;-6.216;2023-05-11T00:24:27;101266.59;;;12.84;100.00
42591;BME280;28218;53.342;-6.216;2023-05-11T00:26:56;101275.53;;;12.83;100.00
42591;BME280;28218;53.342;-6.216;2023-05-11T00:29:24;101266.78;;;12.83;100.00
42591;BME280;28218;53.342;-6.216;2023-05-11T00:31:52;101272.41;;;12.79;100.00
42591;BME280;28218;53.342;-6.216;2023-05-11T00:34:20;101277.38;;;12.83;100.00
42591;BME280;28218;53.342;-6.216;2023-05-11T00:36:49;101276.72;;;12.81;100.00
42591;BME280;28218;53.342;-6.216;2023-05-11T00:39:17;101282.31;;;12.86;100.00
42591;BME280;28218;53.342;-6.216;2023-05-11T00:41:46;101277.53;;;12.89;100.00
42591;BME280;28218;53.342;-6.216;2023-05-11T00:44:15;101275.03;;;12.88;100.00
42591;BME280;28218;53.342;-6.216;2023-05-11T00:46:43;101278.88;;;12.85;100.00
42591;BME280;28218;53.342;-6.216;2023-05-11T00:49:12;101287.78;;;12.84;100.00
42591;BME280;28218;53.342;-6.216;2023-05-11T00:51:43;101280.50;;;12.86;100.00
42591;BME280;28218;53.342;-6.216;2023-05-11T00:54:11;101285.78;;;12.86;100.00
42591;BME280;28218;53.342;-6.216;2023-05-11T00:56:41;101286.94;;;12.84;100.00
42591;BME280;28218;53.342;-6.216;2023-05-11T00:59:11;101275.22;;;12.78;100.00
42591;BME280;28218;53.342;-6.216;2023-05-11T01:01:39;101280.19;;;12.73;100.00
42591;BME280;28218;53.342;-6.216;2023-05-11T01:04:08;101279.56;;;12.71;100.00
42591;BME280;28218;53.342;-6.216;2023-05-11T01:06:48;101289.13;;;12.72;100.00
42591;BME280;28218;53.342;-6.216;2023-05-11T01:09:26;101295.56;;;12.69;100.00
42591;BME280;28218;53.342;-6.216;2023-05-11T01:12:05;101297.38;;;12.69;100.00
42591;BME280;28218;53.342;-6.216;2023-05-11T01:14:41;101290.97;;;12.63;100.00
42591;BME280;28218;53.342;-6.216;2023-05-11T01:17:17;101292.28;;;12.59;100.00
42591;BME280;28218;53.342;-6.216;2023-05-11T01:19:55;101295.75;;;12.60;100.00
42591;BME280;28218;53.342;-6.216;2023-05-11T01:22:33;101294.09;;;12.59;100.00
42591;BME280;28218;53.342;-6.216;2023-05-11T01:25:12;101301.22;;;12.58;100.00
42591;BME280;28218;53.342;-6.216;2023-05-11T01:28:19;101291.78;;;12.56;100.00
42591;BME280;28218;53.342;-6.216;2023-05-11T01:30:53;101291.28;;;12.60;100.00
42591;BME280;28218;53.342;-6.216;2023-05-11T01:33:26;101300.03;;;12.61;100.00
42591;BME280;28218;53.342;-6.216;2023-05-11T01:36:02;101309.16;;;12.66;100.00
42591;BME280;28218;53.342;-6.216;2023-05-11T01:38:34;101310.59;;;12.69;100.00
42591;BME280;28218;53.342;-6.216;2023-05-11T01:41:09;101307.31;;;12.67;100.00
42591;BME280;28218;53.342;-6.216;2023-05-11T01:43:40;101298.38;;;12.68;100.00
42591;BME280;28218;53.342;-6.216;2023-05-11T01:46:11;101300.38;;;12.66;100.00
42591;BME280;28218;53.342;-6.216;2023-05-11T01:48:43;101299.72;;;12.64;100.00
42591;BME280;28218;53.342;-6.216;2023-05-11T01:51:14;101303.53;;;12.61;100.00
42591;BME280;28218;53.342;-6.216;2023-05-11T01:53:45;101293.47;;;12.48;100.00
42591;BME280;28218;53.342;-6.216;2023-05-11T01:56:14;101295.09;;;12.49;100.00
42591;BME280;28218;53.342;-6.216;2023-05-11T01:58:44;101293.78;;;12.45;100.00
42591;BME280;28218;53.342;-6.216;2023-05-11T02:01:15;101303.84;;;12.42;100.00
42591;BME280;28218;53.342;-6.216;2023-05-11T02:03:45;101304.53;;;12.36;100.00
42591;BME280;28218;53.342;-6.216;2023-05-11T02:06:16;101312.63;;;12.34;100.00
42591;BME280;28218;53.342;-6.216;2023-05-11T02:08:48;101312.44;;;12.27;100.00
42591;BME280;28218;53.342;-6.216;2023-05-11T02:11:18;101316.91;;;12.27;100.00
42591;BME280;28218;53.342;-6.216;2023-05-11T02:13:48;101314.25;;;12.27;100.00
42591;BME280;28218;53.342;-6.216;2023-05-11T02:16:20;101314.25;;;12.27;100.00
42591;BME280;28218;53.342;-6.216;2023-05-11T02:18:49;101310.97;;;12.25;100.00
42591;BME280;28218;53.342;-6.216;2023-05-11T02:21:19;101309.97;;;12.26;100.00
42591;BME280;28218;53.342;-6.216;2023-05-11T02:23:49;101310.97;;;12.25;100.00
42591;BME280;28218;53.342;-6.216;2023-05-11T02:26:18;101311.97;;;12.24;100.00
42591;BME280;28218;53.342;-6.216;2023-05-11T02:28:47;101310.28;;;12.23;100.00
42591;BME280;28218;53.342;-6.216;2023-05-11T02:31:18;101313.28;;;12.20;100.00
42591;BME280;28218;53.342;-6.216;2023-05-11T02:33:50;101304.19;;;12.22;100.00
42591;BME280;28218;53.342;-6.216;2023-05-11T02:36:22;101313.94;;;12.22;100.00
42591;BME280;28218;53.342;-6.216;2023-05-11T02:38:55;101308.66;;;12.22;100.00
42591;BME280;28218;53.342;-6.216;2023-05-11T02:41:27;101315.94;;;12.20;100.00
42591;BME280;28218;53.342;-6.216;2023-05-11T02:44:01;101319.22;;;12.22;100.00
42591;BME280;28218;53.342;-6.216;2023-05-11T02:46:33;101317.56;;;12.21;100.00
42591;BME280;28218;53.342;-6.216;2023-05-11T02:49:07;101318.72;;;12.26;100.00
42591;BME280;28218;53.342;-6.216;2023-05-11T02:51:36;101314.13;;;12.28;100.00
42591;BME280;28218;53.342;-6.216;2023-05-11T02:54:06;101328.81;;;12.31;100.00
42591;BME280;28218;53.342;-6.216;2023-05-11T02:56:37;101321.56;;;12.33;100.00
42591;BME280;28218;53.342;-6.216;2023-05-11T02:59:06;101313.44;;;12.35;100.00
42591;BME280;28218;53.342;-6.216;2023-05-11T03:01:34;101318.56;;;12.36;100.00
42591;BME280;28218;53.342;-6.216;2023-05-11T03:04:05;101326.16;;;12.39;100.00
42591;BME280;28218;53.342;-6.216;2023-05-11T03:06:34;101321.53;;;12.41;100.00
42591;BME280;28218;53.342;-6.216;2023-05-11T03:09:03;101327.81;;;12.40;100.00
42591;BME280;28218;53.342;-6.216;2023-05-11T03:11:36;101324.84;;;12.43;100.00
42591;BME280;28218;53.342;-6.216;2023-05-11T03:14:05;101328.50;;;12.42;100.00
42591;BME280;28218;53.342;-6.216;2023-05-11T03:16:34;101331.97;;;12.43;100.00
42591;BME280;28218;53.342;-6.216;2023-05-11T03:19:06;101331.78;;;12.44;100.00
42591;BME280;28218;53.342;-6.216;2023-05-11T03:21:36;101323.69;;;12.46;100.00
42591;BME280;28218;53.342;-6.216;2023-05-11T03:24:06;101326.31;;;12.46;100.00
42591;BME280;28218;53.342;-6.216;2023-05-11T03:26:35;101330.13;;;12.43;100.00
42591;BME280;28218;53.342;-6.216;2023-05-11T03:29:04;101326.66;;;12.43;100.00
42591;BME280;28218;53.342;-6.216;2023-05-11T03:31:34;101330.97;;;12.44;100.00
42591;BME280;28218;53.342;-6.216;2023-05-11T03:34:02;101331.59;;;12.46;100.00
42591;BME280;28218;53.342;-6.216;2023-05-11T03:36:32;101325.19;;;12.48;100.00
42591;BME280;28218;53.342;-6.216;2023-05-11T03:39:01;101332.28;;;12.48;100.00
42591;BME280;28218;53.342;-6.216;2023-05-11T03:41:31;101331.47;;;12.47;100.00
42591;BME280;28218;53.342;-6.216;2023-05-11T03:44:04;101334.25;;;12.46;100.00
42591;BME280;28218;53.342;-6.216;2023-05-11T03:46:34;101328.81;;;12.47;100.00
42591;BME280;28218;53.342;-6.216;2023-05-11T03:49:06;101332.09;;;12.49;100.00
42591;BME280;28218;53.342;-6.216;2023-05-11T03:51:40;101326.50;;;12.52;100.00
42591;BME280;28218;53.342;-6.216;2023-05-11T03:54:08;101324.34;;;12.48;100.00
42591;BME280;28218;53.342;-6.216;2023-05-11T03:56:37;101323.69;;;12.46;100.00
42591;BME280;28218;53.342;-6.216;2023-05-11T03:59:06;101318.25;;;12.47;100.00
42591;BME280;28218;53.342;-6.216;2023-05-11T04:01:35;101316.06;;;12.51;100.00
42591;BME280;28218;53.342;-6.216;2023-05-11T04:04:04;101317.56;;;12.45;100.00
42591;BME280;28218;53.342;-6.216;2023-05-11T04:06:32;101314.94;;;12.45;100.00
42591;BME280;28218;53.342;-6.216;2023-05-11T04:09:02;101315.09;;;12.44;100.00
42591;BME280;28218;53.342;-6.216;2023-05-11T04:11:35;101326.16;;;12.39;100.00
42591;BME280;28218;53.342;-6.216;2023-05-11T04:14:04;101328.31;;;12.44;100.00
42591;BME280;28218;53.342;-6.216;2023-05-11T04:16:32;101333.78;;;12.42;100.00
42591;BME280;28218;53.342;-6.216;2023-05-11T04:19:00;101332.09;;;12.41;100.00
42591;BME280;28218;53.342;-6.216;2023-05-11T04:21:29;101331.78;;;12.36;100.00
42591;BME280;28218;53.342;-6.216;2023-05-11T04:23:58;101329.94;;;12.37;100.00
42591;BME280;28218;53.342;-6.216;2023-05-11T04:26:28;101325.50;;;12.37;100.00
42591;BME280;28218;53.342;-6.216;2023-05-11T04:28:56;101332.44;;;12.38;100.00
42591;BME280;28218;53.342;-6.216;2023-05-11T04:31:24;101328.97;;;12.38;100.00
42591;BME280;28218;53.342;-6.216;2023-05-11T04:33:52;101325.16;;;12.32;100.00
42591;BME280;28218;53.342;-6.216;2023-05-11T04:36:20;101324.34;;;12.32;100.00
42591;BME280;28218;53.342;-6.216;2023-05-11T04:38:49;101319.88;;;12.32;100.00
42591;BME280;28218;53.342;-6.216;2023-05-11T04:41:19;101326.50;;;12.36;100.00
42591;BME280;28218;53.342;-6.216;2023-05-11T04:43:49;101328.47;;;12.34;100.00
42591;BME280;28218;53.342;-6.216;2023-05-11T04:46:17;101330.13;;;12.35;100.00
42591;BME280;28218;53.342;-6.216;2023-05-11T04:48:46;101330.94;;;12.36;100.00
42591;BME280;28218;53.342;-6.216;2023-05-11T04:51:14;101334.91;;;12.32;100.00
42591;BME280;28218;53.342;-6.216;2023-05-11T04:53:43;101335.72;;;12.32;100.00
42591;BME280;28218;53.342;-6.216;2023-05-11T04:56:11;101337.41;;;12.33;100.00
42591;BME280;28218;53.342;-6.216;2023-05-11T04:58:39;101337.06;;;12.36;100.00
42591;BME280;28218;53.342;-6.216;2023-05-11T05:01:09;101342.03;;;12.39;100.00
42591;BME280;28218;53.342;-6.216;2023-05-11T05:03:37;101338.69;;;12.37;100.00
42591;BME280;28218;53.342;-6.216;2023-05-11T05:06:05;101349.13;;;12.39;100.00
42591;BME280;28218;53.342;-6.216;2023-05-11T05:08:34;101347.50;;;12.38;100.00
42591;BME280;28218;53.342;-6.216;2023-05-11T05:11:02;101352.59;;;12.39;100.00
42591;BME280;28218;53.342;-6.216;2023-05-11T05:13:30;101349.78;;;12.41;100.00
42591;BME280;28218;53.342;-6.216;2023-05-11T05:15:58;101352.09;;;12.44;100.00
42591;BME280;28218;53.342;-6.216;2023-05-11T05:18:28;101347.00;;;12.42;100.00
42591;BME280;28218;53.342;-6.216;2023-05-11T05:20:56;101351.94;;;12.45;100.00
42591;BME280;28218;53.342;-6.216;2023-05-11T05:23:24;101349.47;;;12.44;100.00
42591;BME280;28218;53.342;-6.216;2023-05-11T05:25:53;101354.91;;;12.50;100.00
42591;BME280;28218;53.342;-6.216;2023-05-11T05:28:21;101354.25;;;12.48;100.00
42591;BME280;28218;53.342;-6.216;2023-05-11T05:30:49;101356.06;;;12.48;100.00
42591;BME280;28218;53.342;-6.216;2023-05-11T05:33:17;101352.44;;;12.49;100.00
42591;BME280;28218;53.342;-6.216;2023-05-11T05:35:47;101355.41;;;12.54;100.00
42591;BME280;28218;53.342;-6.216;2023-05-11T05:38:15;101356.22;;;12.54;100.00
42591;BME280;28218;53.342;-6.216;2023-05-11T05:40:44;101346.97;;;12.59;100.00
42591;BME280;28218;53.342;-6.216;2023-05-11T05:43:12;101351.44;;;12.58;100.00
42591;BME280;28218;53.342;-6.216;2023-05-11T05:45:40;101342.34;;;12.61;100.00
42591;BME280;28218;53.342;-6.216;2023-05-11T05:48:08;101344.00;;;12.62;100.00
42591;BME280;28218;53.342;-6.216;2023-05-11T05:50:36;101346.66;;;12.62;100.00
42591;BME280;28218;53.342;-6.216;2023-05-11T05:53:06;101343.00;;;12.63;100.00
42591;BME280;28218;53.342;-6.216;2023-05-11T05:55:34;101347.13;;;12.65;100.00
42591;BME280;28218;53.342;-6.216;2023-05-11T05:58:02;101347.31;;;12.64;100.00
42591;BME280;28218;53.342;-6.216;2023-05-11T06:00:31;101347.97;;;12.66;100.00
42591;BME280;28218;53.342;-6.216;2023-05-11T06:02:59;101349.78;;;12.73;100.00
42591;BME280;28218;53.342;-6.216;2023-05-11T06:05:27;101349.09;;;12.79;100.00
42591;BME280;28218;53.342;-6.216;2023-05-11T06:07:55;101353.75;;;12.86;100.00
42591;BME280;28218;53.342;-6.216;2023-05-11T06:10:37;101353.06;;;12.84;100.00
42591;BME280;28218;53.342;-6.216;2023-05-11T06:13:06;101350.28;;;12.85;100.00
42591;BME280;28218;53.342;-6.216;2023-05-11T06:15:35;101355.19;;;12.96;100.00
42591;BME280;28218;53.342;-6.216;2023-05-11T06:18:04;101352.22;;;12.91;100.00
42591;BME280;28218;53.342;-6.216;2023-05-11T06:20:32;101356.19;;;12.95;100.00
42591;BME280;28218;53.342;-6.216;2023-05-11T06:23:00;101347.91;;;12.98;100.00
42591;BME280;28218;53.342;-6.216;2023-05-11T06:25:28;101344.28;;;12.99;100.00
42591;BME280;28218;53.342;-6.216;2023-05-11T06:27:58;101351.91;;;12.94;100.00
42591;BME280;28218;53.342;-6.216;2023-05-11T06:30:27;101354.88;;;12.99;100.00
42591;BME280;28218;53.342;-6.216;2023-05-11T06:32:55;101354.88;;;12.99;100.00
42591;BME280;28218;53.342;-6.216;2023-05-11T06:35:24;101359.47;;;13.05;100.00
42591;BME280;28218;53.342;-6.216;2023-05-11T06:37:52;101362.13;;;13.14;100.00
42591;BME280;28218;53.342;-6.216;2023-05-11T06:40:20;101362.97;;;13.22;100.00
42591;BME280;28218;53.342;-6.216;2023-05-11T06:42:49;101355.47;;;13.26;100.00
42591;BME280;28218;53.342;-6.216;2023-05-11T06:45:19;101358.13;;;13.34;100.00
42591;BME280;28218;53.342;-6.216;2023-05-11T06:47:47;101358.59;;;13.38;100.00
42591;BME280;28218;53.342;-6.216;2023-05-11T06:50:15;101369.31;;;13.44;100.00
42591;BME280;28218;53.342;-6.216;2023-05-11T06:52:46;101370.13;;;13.53;100.00
42591;BME280;28218;53.342;-6.216;2023-05-11T06:55:15;101366.31;;;13.55;100.00
42591;BME280;28218;53.342;-6.216;2023-05-11T06:57:43;101358.38;;;13.55;100.00
42591;BME280;28218;53.342;-6.216;2023-05-11T07:00:13;101363.69;;;13.47;100.00
42591;BME280;28218;53.342;-6.216;2023-05-11T07:02:43;101368.31;;;13.45;100.00
42591;BME280;28218;53.342;-6.216;2023-05-11T07:05:11;101362.72;;;13.40;100.00
42591;BME280;28218;53.342;-6.216;2023-05-11T07:07:39;101365.34;;;13.48;100.00
42591;BME280;28218;53.342;-6.216;2023-05-11T07:10:08;101372.03;;;13.67;100.00
42591;BME280;28218;53.342;-6.216;2023-05-11T07:12:37;101372.97;;;13.82;100.00
42591;BME280;28218;53.342;-6.216;2023-05-11T07:15:06;101372.81;;;13.84;100.00
42591;BME280;28218;53.342;-6.216;2023-05-11T07:17:35;101377.94;;;13.86;100.00
42591;BME280;28218;53.342;-6.216;2023-05-11T07:20:06;101380.59;;;13.77;100.00
42591;BME280;28218;53.342;-6.216;2023-05-11T07:22:34;101377.84;;;13.63;100.00
42591;BME280;28218;53.342;-6.216;2023-05-11T07:25:03;101382.03;;;13.57;100.00
42591;BME280;28218;53.342;-6.216;2023-05-11T07:27:31;101377.72;;;13.56;100.00
42591;BME280;28218;53.342;-6.216;2023-05-11T07:30:00;101375.59;;;13.51;100.00
42591;BME280;28218;53.342;-6.216;2023-05-11T07:32:29;101388.31;;;13.56;100.00
42591;BME280;28218;53.342;-6.216;2023-05-11T07:34:58;101384.84;;;13.55;100.00
42591;BME280;28218;53.342;-6.216;2023-05-11T07:37:28;101382.22;;;13.55;100.00
42591;BME280;28218;53.342;-6.216;2023-05-11T07:39:56;101384.34;;;13.60;100.00
42591;BME280;28218;53.342;-6.216;2023-05-11T07:42:24;101380.19;;;13.66;100.00
42591;BME280;28218;53.342;-6.216;2023-05-11T07:44:53;101392.38;;;13.75;100.00
42591;BME280;28218;53.342;-6.216;2023-05-11T07:47:21;101388.72;;;13.76;100.00
42591;BME280;28218;53.342;-6.216;2023-05-11T07:49:50;101389.03;;;13.81;100.00
42591;BME280;28218;53.342;-6.216;2023-05-11T07:52:19;101387.41;;;13.80;100.00
42591;BME280;28218;53.342;-6.216;2023-05-11T07:54:49;101385.16;;;13.92;100.00
42591;BME280;28218;53.342;-6.216;2023-05-11T07:57:18;101390.44;;;14.00;100.00
42591;BME280;28218;53.342;-6.216;2023-05-11T07:59:46;101395.59;;;13.93;100.00
42591;BME280;28218;53.342;-6.216;2023-05-11T08:02:14;101395.59;;;13.93;100.00
42591;BME280;28218;53.342;-6.216;2023-05-11T08:04:45;101400.22;;;13.99;100.00
42591;BME280;28218;53.342;-6.216;2023-05-11T08:07:13;101400.53;;;13.96;100.00
42591;BME280;28218;53.342;-6.216;2023-05-11T08:09:42;101399.16;;;14.09;100.00
42591;BME280;28218;53.342;-6.216;2023-05-11T08:12:12;101401.00;;;14.08;100.00
42591;BME280;28218;53.342;-6.216;2023-05-11T08:14:41;101404.13;;;14.12;100.00
42591;BME280;28218;53.342;-6.216;2023-05-11T08:17:09;101399.75;;;14.19;100.00
42591;BME280;28218;53.342;-6.216;2023-05-11T08:19:38;101413.78;;;14.27;100.00
42591;BME280;28218;53.342;-6.216;2023-05-11T08:22:06;101409.28;;;14.36;100.00
42591;BME280;28218;53.342;-6.216;2023-05-11T08:24:35;101400.97;;;14.62;100.00
42591;BME280;28218;53.342;-6.216;2023-05-11T08:27:03;101413.34;;;14.93;100.00
42591;BME280;28218;53.342;-6.216;2023-05-11T08:29:33;101411.06;;;15.04;100.00
42591;BME280;28218;53.342;-6.216;2023-05-11T08:32:01;101406.22;;;15.08;100.00
42591;BME280;28218;53.342;-6.216;2023-05-11T08:34:30;101416.22;;;15.21;100.00
42591;BME280;28218;53.342;-6.216;2023-05-11T08:36:58;101398.09;;;15.39;100.00
42591;BME280;28218;53.342;-6.216;2023-05-11T08:39:27;101399.66;;;15.48;100.00
42591;BME280;28218;53.342;-6.216;2023-05-11T08:42:14;101396.16;;;15.48;100.00
42591;BME280;28218;53.342;-6.216;2023-05-11T08:44:46;101395.78;;;15.51;100.00
42591;BME280;28218;53.342;-6.216;2023-05-11T08:47:15;101395.06;;;15.57;100.00
42591;BME280;28218;53.342;-6.216;2023-05-11T08:49:50;101400.13;;;15.67;100.00
42591;BME280;28218;53.342;-6.216;2023-05-11T08:52:18;101398.63;;;15.79;100.00
42591;BME280;28218;53.342;-6.216;2023-05-11T08:54:47;101397.25;;;15.83;100.00
42591;BME280;28218;53.342;-6.216;2023-05-11T08:57:16;101408.63;;;15.92;100.00
42591;BME280;28218;53.342;-6.216;2023-05-11T08:59:47;101403.38;;;15.98;100.00
42591;BME280;28218;53.342;-6.216;2023-05-11T09:02:18;101400.59;;;16.06;100.00
42591;BME280;28218;53.342;-6.216;2023-05-11T09:04:48;101397.03;;;16.14;100.00
42591;BME280;28218;53.342;-6.216;2023-05-11T09:07:18;101403.16;;;16.15;100.00
42591;BME280;28218;53.342;-6.216;2023-05-11T09:09:46;101396.16;;;16.14;100.00
42591;BME280;28218;53.342;-6.216;2023-05-11T09:12:15;101401.88;;;16.10;100.00
42591;BME280;28218;53.342;-6.216;2023-05-11T09:14:43;101400.09;;;16.18;100.00
42591;BME280;28218;53.342;-6.216;2023-05-11T09:17:14;101400.34;;;16.23;100.00
42591;BME280;28218;53.342;-6.216;2023-05-11T09:19:59;101408.66;;;16.34;100.00
42591;BME280;28218;53.342;-6.216;2023-05-11T09:22:27;101405.41;;;16.18;100.00
42591;BME280;28218;53.342;-6.216;2023-05-11T09:25:01;101415.47;;;16.01;100.00
42591;BME280;28218;53.342;-6.216;2023-05-11T09:27:29;101402.66;;;15.90;100.00
42591;BME280;28218;53.342;-6.216;2023-05-11T09:30:09;101411.94;;;15.79;100.00
42591;BME280;28218;53.342;-6.216;2023-05-11T09:32:50;101412.94;;;15.78;100.00
42591;BME280;28218;53.342;-6.216;2023-05-11T09:35:23;101410.34;;;15.84;100.00
42591;BME280;28218;53.342;-6.216;2023-05-11T09:37:59;101401.66;;;15.91;100.00
42591;BME280;28218;53.342;-6.216;2023-05-11T09:40:28;101404.84;;;16.01;100.00
42591;BME280;28218;53.342;-6.216;2023-05-11T09:43:01;101402.34;;;15.99;100.00
42591;BME280;28218;53.342;-6.216;2023-05-11T09:45:39;101411.38;;;15.83;100.00
42591;BME280;28218;53.342;-6.216;2023-05-11T09:48:24;101416.16;;;15.73;100.00
42591;BME280;28218;53.342;-6.216;2023-05-11T09:50:59;101404.41;;;15.53;100.00
42591;BME280;28218;53.342;-6.216;2023-05-11T09:53:40;101414.31;;;15.44;100.00
42591;BME280;28218;53.342;-6.216;2023-05-11T09:56:12;101415.88;;;15.39;100.00
42591;BME280;28218;53.342;-6.216;2023-05-11T09:58:47;101405.41;;;15.37;100.00
42591;BME280;28218;53.342;-6.216;2023-05-11T10:01:16;101403.28;;;15.47;100.00
42591;BME280;28218;53.342;-6.216;2023-05-11T10:03:49;101397.34;;;15.60;100.00
42591;BME280;28218;53.342;-6.216;2023-05-11T10:06:18;101405.44;;;15.81;100.00
42591;BME280;28218;53.342;-6.216;2023-05-11T10:08:47;101388.34;;;16.27;100.00
42591;BME280;28218;53.342;-6.216;2023-05-11T10:11:15;101401.09;;;16.53;100.00
42591;BME280;28218;53.342;-6.216;2023-05-11T10:13:44;101404.69;;;16.45;100.00
42591;BME280;28218;53.342;-6.216;2023-05-11T10:16:15;101404.13;;;16.28;100.00
42591;BME280;28218;53.342;-6.216;2023-05-11T10:18:43;101408.31;;;16.01;100.00
42591;BME280;28218;53.342;-6.216;2023-05-11T10:21:15;101409.38;;;15.86;100.00
42591;BME280;28218;53.342;-6.216;2023-05-11T10:23:44;101411.19;;;15.55;100.00
42591;BME280;28218;53.342;-6.216;2023-05-11T10:26:12;101413.03;;;15.40;100.00
42591;BME280;28218;53.342;-6.216;2023-05-11T10:28:41;101420.53;;;15.37;100.00
42591;BME280;28218;53.342;-6.216;2023-05-11T10:31:10;101413.84;;;15.26;100.00
42591;BME280;28218;53.342;-6.216;2023-05-11T10:33:40;101413.38;;;15.37;100.00
42591;BME280;28218;53.342;-6.216;2023-05-11T10:36:09;101414.06;;;15.69;100.00
42591;BME280;28218;53.342;-6.216;2023-05-11T10:38:46;101409.59;;;16.05;100.00
42591;BME280;28218;53.342;-6.216;2023-05-11T10:41:29;101401.75;;;16.40;100.00
42591;BME280;28218;53.342;-6.216;2023-05-11T10:47:39;101396.13;;;16.71;100.00
42591;BME280;28218;53.342;-6.216;2023-05-11T10:50:19;101395.25;;;16.85;100.00
42591;BME280;28218;53.342;-6.216;2023-05-11T10:53:14;101395.19;;;16.79;100.00
42591;BME280;28218;53.342;-6.216;2023-05-11T10:56:12;101393.03;;;16.68;100.00
42591;BME280;28218;53.342;-6.216;2023-05-11T10:59:01;101403.66;;;16.68;100.00
42591;BME280;28218;53.342;-6.216;2023-05-11T11:01:38;101390.75;;;16.86;100.00
42591;BME280;28218;53.342;-6.216;2023-05-11T11:04:08;101388.03;;;17.07;100.00
42591;BME280;28218;53.342;-6.216;2023-05-11T11:06:38;101396.31;;;17.19;100.00
42591;BME280;28218;53.342;-6.216;2023-05-11T11:09:08;101394.63;;;17.46;100.00
42591;BME280;28218;53.342;-6.216;2023-05-11T11:11:40;101392.31;;;17.78;100.00
42591;BME280;28218;53.342;-6.216;2023-05-11T11:14:12;101399.50;;;17.77;100.00
42591;BME280;28218;53.342;-6.216;2023-05-11T11:19:54;101412.31;;;17.26;100.00
42591;BME280;28218;53.342;-6.216;2023-05-11T11:22:42;101415.56;;;16.93;100.00
42591;BME280;28218;53.342;-6.216;2023-05-11T11:25:14;101422.91;;;16.70;100.00
42591;BME280;28218;53.342;-6.216;2023-05-11T11:27:57;101422.72;;;16.50;100.00
42591;BME280;28218;53.342;-6.216;2023-05-11T11:30:25;101427.78;;;16.23;100.00
42591;BME280;28218;53.342;-6.216;2023-05-11T11:33:29;101427.53;;;16.03;100.00
42591;BME280;28218;53.342;-6.216;2023-05-11T11:35:58;101431.72;;;15.91;100.00
42591;BME280;28218;53.342;-6.216;2023-05-11T11:38:29;101420.91;;;15.78;100.00
42591;BME280;28218;53.342;-6.216;2023-05-11T11:40:58;101423.03;;;15.68;100.00
42591;BME280;28218;53.342;-6.216;2023-05-11T11:43:42;101424.94;;;15.59;100.00
42591;BME280;28218;53.342;-6.216;2023-05-11T11:46:25;101435.28;;;15.54;100.00
42591;BME280;28218;53.342;-6.216;2023-05-11T11:49:05;101444.97;;;15.47;100.00
42591;BME280;28218;53.342;-6.216;2023-05-11T11:51:35;101442.22;;;15.40;100.00
42591;BME280;28218;53.342;-6.216;2023-05-11T11:54:06;101447.69;;;15.24;100.00
42591;BME280;28218;53.342;-6.216;2023-05-11T11:56:37;101455.81;;;15.07;100.00
42591;BME280;28218;53.342;-6.216;2023-05-11T11:59:07;101453.91;;;15.01;100.00
42591;BME280;28218;53.342;-6.216;2023-05-11T12:01:42;101452.41;;;14.99;100.00
42591;BME280;28218;53.342;-6.216;2023-05-11T12:04:37;101449.28;;;14.95;100.00
42591;BME280;28218;53.342;-6.216;2023-05-11T12:07:07;101449.47;;;14.94;100.00
42591;BME280;28218;53.342;-6.216;2023-05-11T12:09:37;101456.56;;;15.01;100.00
42591;BME280;28218;53.342;-6.216;2023-05-11T12:12:08;101457.47;;;15.08;100.00
42591;BME280;28218;53.342;-6.216;2023-05-11T12:14:39;101455.38;;;15.19;100.00
42591;BME280;28218;53.342;-6.216;2023-05-11T12:17:22;101464.56;;;15.31;100.00
42591;BME280;28218;53.342;-6.216;2023-05-11T12:19:51;101456.13;;;15.42;100.00
42591;BME280;28218;53.342;-6.216;2023-05-11T12:22:22;101460.81;;;15.55;100.00
42591;BME280;28218;53.342;-6.216;2023-05-11T12:24:54;101462.69;;;15.69;100.00
42591;BME280;28218;53.342;-6.216;2023-05-11T12:27:25;101459.56;;;15.80;100.00
42591;BME280;28218;53.342;-6.216;2023-05-11T12:29:55;101464.97;;;15.87;100.00
42591;BME280;28218;53.342;-6.216;2023-05-11T12:32:25;101463.59;;;15.91;100.00
42591;BME280;28218;53.342;-6.216;2023-05-11T12:34:59;101461.78;;;15.92;100.00
42591;BME280;28218;53.342;-6.216;2023-05-11T12:37:28;101465.19;;;15.86;100.00
42591;BME280;28218;53.342;-6.216;2023-05-11T12:39:58;101464.06;;;15.80;100.00
42591;BME280;28218;53.342;-6.216;2023-05-11T12:42:26;101462.50;;;15.71;100.00
42591;BME280;28218;53.342;-6.216;2023-05-11T12:44:56;101473.22;;;15.63;100.00
42591;BME280;28218;53.342;-6.216;2023-05-11T12:47:24;101480.31;;;15.47;100.00
42591;BME280;28218;53.342;-6.216;2023-05-11T12:49:53;101478.66;;;15.31;100.00
42591;BME280;28218;53.342;-6.216;2023-05-11T12:52:22;101489.81;;;15.27;100.00
42591;BME280;28218;53.342;-6.216;2023-05-11T12:54:51;101492.53;;;15.19;100.00
42591;BME280;28218;53.342;-6.216;2023-05-11T12:57:25;101504.59;;;15.06;100.00